sensor_id;sensor_type;location;lat;lon;timestamp;P1;P2;P0
49064;PMS5003;34876;51.464;-0.150;2024-02-21T00:00:02;4;4;
49064;PMS5003;34876;51.464;-0.150;2024-02-21T00:02:32;7;7;
49064;PMS5003;34876;51.464;-0.150;2024-02-21T00:05:02;6;5;
49064;PMS5003;34876;51.464;-0.150;2024-02-21T00:07:32;8;7;
49064;PMS5003;34876;51.464;-0.150;2024-02-21T00:10:08;6;6;
49064;PMS5003;34876;51.464;-0.150;2024-02-21T00:12:38;4;3;
49064;PMS5003;34876;51.464;-0.150;2024-02-21T00:15:12;5;3;
49064;PMS5003;34876;51.464;-0.150;2024-02-21T00:17:43;6;4;
49064;PMS5003;34876;51.464;-0.150;2024-02-21T00:20:12;5;4;
49064;PMS5003;34876;51.464;-0.150;2024-02-21T00:22:41;6;5;
49064;PMS5003;34876;51.464;-0.150;2024-02-21T00:25:11;5;3;
49064;PMS5003;34876;51.464;-0.150;2024-02-21T00:27:41;6;5;
49064;PMS5003;34876;51.464;-0.150;2024-02-21T00:30:11;4;4;
49064;PMS5003;34876;51.464;-0.150;2024-02-21T00:32:40;5;4;
49064;PMS5003;34876;51.464;-0.150;2024-02-21T00:35:10;3;3;
49064;PMS5003;34876;51.464;-0.150;2024-02-21T00:37:41;6;5;
49064;PMS5003;34876;51.464;-0.150;2024-02-21T00:40:10;6;6;
49064;PMS5003;34876;51.464;-0.150;2024-02-21T00:42:40;3;3;
49064;PMS5003;34876;51.464;-0.150;2024-02-21T00:45:26;5;5;
49064;PMS5003;34876;51.464;-0.150;2024-02-21T00:47:56;5;5;
49064;PMS5003;34876;51.464;-0.150;2024-02-21T00:50:26;2;2;
49064;PMS5003;34876;51.464;-0.150;2024-02-21T00:53:00;7;7;
49064;PMS5003;34876;51.464;-0.150;2024-02-21T00:55:33;5;5;
49064;PMS5003;34876;51.464;-0.150;2024-02-21T00:58:07;4;4;
49064;PMS5003;34876;51.464;-0.150;2024-02-21T01:03:33;7;7;
49064;PMS5003;34876;51.464;-0.150;2024-02-21T01:06:02;5;4;
49064;PMS5003;34876;51.464;-0.150;2024-02-21T01:08:31;9;6;
49064;PMS5003;34876;51.464;-0.150;2024-02-21T01:11:00;7;7;
49064;PMS5003;34876;51.464;-0.150;2024-02-21T01:13:30;6;6;
49064;PMS5003;34876;51.464;-0.150;2024-02-21T01:16:06;6;6;
49064;PMS5003;34876;51.464;-0.150;2024-02-21T01:18:39;4;4;
49064;PMS5003;34876;51.464;-0.150;2024-02-21T01:21:14;11;8;
49064;PMS5003;34876;51.464;-0.150;2024-02-21T01:23:50;9;9;
49064;PMS5003;34876;51.464;-0.150;2024-02-21T01:26:25;7;7;
49064;PMS5003;34876;51.464;-0.150;2024-02-21T01:28:54;11;7;
49064;PMS5003;34876;51.464;-0.150;2024-02-21T01:31:25;9;8;
49064;PMS5003;34876;51.464;-0.150;2024-02-21T01:33:56;7;7;
49064;PMS5003;34876;51.464;-0.150;2024-02-21T01:36:26;11;10;
49064;PMS5003;34876;51.464;-0.150;2024-02-21T01:38:55;9;9;
49064;PMS5003;34876;51.464;-0.150;2024-02-21T01:41:25;14;11;
49064;PMS5003;34876;51.464;-0.150;2024-02-21T01:43:56;6;5;
49064;PMS5003;34876;51.464;-0.150;2024-02-21T01:46:25;6;5;
49064;PMS5003;34876;51.464;-0.150;2024-02-21T01:49:01;10;9;
49064;PMS5003;34876;51.464;-0.150;2024-02-21T01:51:29;13;11;
49064;PMS5003;34876;51.464;-0.150;2024-02-21T01:54:04;16;14;
49064;PMS5003;34876;51.464;-0.150;2024-02-21T01:56:39;10;9;
49064;PMS5003;34876;51.464;-0.150;2024-02-21T01:59:09;12;10;
49064;PMS5003;34876;51.464;-0.150;2024-02-21T02:01:39;12;9;
49064;PMS5003;34876;51.464;-0.150;2024-02-21T02:04:10;9;7;
49064;PMS5003;34876;51.464;-0.150;2024-02-21T02:06:40;6;6;
49064;PMS5003;34876;51.464;-0.150;2024-02-21T02:09:10;9;9;
49064;PMS5003;34876;51.464;-0.150;2024-02-21T02:11:39;14;13;
49064;PMS5003;34876;51.464;-0.150;2024-02-21T02:14:14;17;14;
49064;PMS5003;34876;51.464;-0.150;2024-02-21T02:16:46;11;11;
49064;PMS5003;34876;51.464;-0.150;2024-02-21T02:19:16;7;7;
49064;PMS5003;34876;51.464;-0.150;2024-02-21T02:21:46;14;11;
49064;PMS5003;34876;51.464;-0.150;2024-02-21T02:24:23;8;8;
49064;PMS5003;34876;51.464;-0.150;2024-02-21T02:26:53;8;8;
49064;PMS5003;34876;51.464;-0.150;2024-02-21T02:29:22;8;7;
49064;PMS5003;34876;51.464;-0.150;2024-02-21T02:31:56;7;7;
49064;PMS5003;34876;51.464;-0.150;2024-02-21T02:34:26;13;13;
49064;PMS5003;34876;51.464;-0.150;2024-02-21T02:36:56;13;12;
49064;PMS5003;34876;51.464;-0.150;2024-02-21T02:39:25;13;12;
49064;PMS5003;34876;51.464;-0.150;2024-02-21T02:41:55;11;10;
49064;PMS5003;34876;51.464;-0.150;2024-02-21T02:44:24;10;7;
49064;PMS5003;34876;51.464;-0.150;2024-02-21T02:46:54;16;12;
49064;PMS5003;34876;51.464;-0.150;2024-02-21T02:49:22;11;11;
49064;PMS5003;34876;51.464;-0.150;2024-02-21T02:51:52;11;11;
49064;PMS5003;34876;51.464;-0.150;2024-02-21T02:54:24;10;9;
49064;PMS5003;34876;51.464;-0.150;2024-02-21T02:56:53;7;5;
49064;PMS5003;34876;51.464;-0.150;2024-02-21T02:59:22;14;13;
49064;PMS5003;34876;51.464;-0.150;2024-02-21T03:01:50;9;6;
49064;PMS5003;34876;51.464;-0.150;2024-02-21T03:04:19;11;10;
49064;PMS5003;34876;51.464;-0.150;2024-02-21T03:06:49;12;11;
49064;PMS5003;34876;51.464;-0.150;2024-02-21T03:09:18;13;13;
49064;PMS5003;34876;51.464;-0.150;2024-02-21T03:11:47;10;10;
49064;PMS5003;34876;51.464;-0.150;2024-02-21T03:14:15;8;8;
49064;PMS5003;34876;51.464;-0.150;2024-02-21T03:16:44;6;6;
49064;PMS5003;34876;51.464;-0.150;2024-02-21T03:19:14;11;9;
49064;PMS5003;34876;51.464;-0.150;2024-02-21T03:21:43;8;6;
49064;PMS5003;34876;51.464;-0.150;2024-02-21T03:24:13;8;6;
49064;PMS5003;34876;51.464;-0.150;2024-02-21T03:26:44;6;6;
49064;PMS5003;34876;51.464;-0.150;2024-02-21T03:29:14;7;7;
49064;PMS5003;34876;51.464;-0.150;2024-02-21T03:31:44;10;6;
49064;PMS5003;34876;51.464;-0.150;2024-02-21T03:34:15;8;7;
49064;PMS5003;34876;51.464;-0.150;2024-02-21T03:36:44;5;5;
49064;PMS5003;34876;51.464;-0.150;2024-02-21T03:39:13;8;7;
49064;PMS5003;34876;51.464;-0.150;2024-02-21T03:41:42;6;4;
49064;PMS5003;34876;51.464;-0.150;2024-02-21T03:44:13;9;6;
49064;PMS5003;34876;51.464;-0.150;2024-02-21T03:46:42;8;5;
49064;PMS5003;34876;51.464;-0.150;2024-02-21T03:49:12;6;6;
49064;PMS5003;34876;51.464;-0.150;2024-02-21T03:51:41;7;7;
49064;PMS5003;34876;51.464;-0.150;2024-02-21T03:54:11;5;5;
49064;PMS5003;34876;51.464;-0.150;2024-02-21T03:56:39;4;4;
49064;PMS5003;34876;51.464;-0.150;2024-02-21T03:59:09;5;5;
49064;PMS5003;34876;51.464;-0.150;2024-02-21T04:01:38;4;4;
49064;PMS5003;34876;51.464;-0.150;2024-02-21T04:04:07;5;4;
49064;PMS5003;34876;51.464;-0.150;2024-02-21T04:06:37;5;5;
49064;PMS5003;34876;51.464;-0.150;2024-02-21T04:09:15;7;6;
49064;PMS5003;34876;51.464;-0.150;2024-02-21T04:11:45;6;4;
49064;PMS5003;34876;51.464;-0.150;2024-02-21T04:14:14;6;5;
49064;PMS5003;34876;51.464;-0.150;2024-02-21T04:16:44;10;6;
49064;PMS5003;34876;51.464;-0.150;2024-02-21T04:19:13;5;5;
49064;PMS5003;34876;51.464;-0.150;2024-02-21T04:21:42;5;5;
49064;PMS5003;34876;51.464;-0.150;2024-02-21T04:24:12;4;4;
49064;PMS5003;34876;51.464;-0.150;2024-02-21T04:26:41;9;7;
49064;PMS5003;34876;51.464;-0.150;2024-02-21T04:29:10;9;6;
49064;PMS5003;34876;51.464;-0.150;2024-02-21T04:31:40;8;7;
49064;PMS5003;34876;51.464;-0.150;2024-02-21T04:34:09;5;3;
49064;PMS5003;34876;51.464;-0.150;2024-02-21T04:36:38;6;6;
49064;PMS5003;34876;51.464;-0.150;2024-02-21T04:39:08;3;3;
49064;PMS5003;34876;51.464;-0.150;2024-02-21T04:41:38;6;6;
49064;PMS5003;34876;51.464;-0.150;2024-02-21T04:44:07;6;6;
49064;PMS5003;34876;51.464;-0.150;2024-02-21T04:46:36;4;4;
49064;PMS5003;34876;51.464;-0.150;2024-02-21T04:49:06;4;4;
49064;PMS5003;34876;51.464;-0.150;2024-02-21T04:51:36;5;4;
49064;PMS5003;34876;51.464;-0.150;2024-02-21T04:54:05;6;4;
49064;PMS5003;34876;51.464;-0.150;2024-02-21T04:56:36;7;7;
49064;PMS5003;34876;51.464;-0.150;2024-02-21T04:59:05;5;5;
49064;PMS5003;34876;51.464;-0.150;2024-02-21T05:01:34;6;6;
49064;PMS5003;34876;51.464;-0.150;2024-02-21T05:04:03;4;4;
49064;PMS5003;34876;51.464;-0.150;2024-02-21T05:06:36;6;6;
49064;PMS5003;34876;51.464;-0.150;2024-02-21T05:09:05;7;6;
49064;PMS5003;34876;51.464;-0.150;2024-02-21T05:11:35;8;7;
49064;PMS5003;34876;51.464;-0.150;2024-02-21T05:14:04;5;5;
49064;PMS5003;34876;51.464;-0.150;2024-02-21T05:16:33;7;4;
49064;PMS5003;34876;51.464;-0.150;2024-02-21T05:19:03;7;6;
49064;PMS5003;34876;51.464;-0.150;2024-02-21T05:21:32;9;8;
49064;PMS5003;34876;51.464;-0.150;2024-02-21T05:24:01;7;5;
49064;PMS5003;34876;51.464;-0.150;2024-02-21T05:26:30;7;5;
49064;PMS5003;34876;51.464;-0.150;2024-02-21T05:29:01;7;7;
49064;PMS5003;34876;51.464;-0.150;2024-02-21T05:31:43;6;4;
49064;PMS5003;34876;51.464;-0.150;2024-02-21T05:34:25;5;4;
49064;PMS5003;34876;51.464;-0.150;2024-02-21T05:36:55;4;4;
49064;PMS5003;34876;51.464;-0.150;2024-02-21T05:39:24;4;4;
49064;PMS5003;34876;51.464;-0.150;2024-02-21T05:41:53;5;5;
49064;PMS5003;34876;51.464;-0.150;2024-02-21T05:44:23;6;5;
49064;PMS5003;34876;51.464;-0.150;2024-02-21T05:46:53;6;6;
49064;PMS5003;34876;51.464;-0.150;2024-02-21T05:49:22;12;9;
49064;PMS5003;34876;51.464;-0.150;2024-02-21T05:51:51;5;5;
49064;PMS5003;34876;51.464;-0.150;2024-02-21T05:54:21;4;4;
49064;PMS5003;34876;51.464;-0.150;2024-02-21T05:56:50;8;6;
49064;PMS5003;34876;51.464;-0.150;2024-02-21T05:59:19;5;5;
49064;PMS5003;34876;51.464;-0.150;2024-02-21T06:01:54;4;3;
49064;PMS5003;34876;51.464;-0.150;2024-02-21T06:04:24;7;6;
49064;PMS5003;34876;51.464;-0.150;2024-02-21T06:06:54;7;6;
49064;PMS5003;34876;51.464;-0.150;2024-02-21T06:09:23;5;5;
49064;PMS5003;34876;51.464;-0.150;2024-02-21T06:11:53;6;4;
49064;PMS5003;34876;51.464;-0.150;2024-02-21T06:14:22;7;6;
49064;PMS5003;34876;51.464;-0.150;2024-02-21T06:16:51;8;6;
49064;PMS5003;34876;51.464;-0.150;2024-02-21T06:19:20;4;4;
49064;PMS5003;34876;51.464;-0.150;2024-02-21T06:21:49;3;2;
49064;PMS5003;34876;51.464;-0.150;2024-02-21T06:24:19;4;4;
49064;PMS5003;34876;51.464;-0.150;2024-02-21T06:26:49;5;3;
49064;PMS5003;34876;51.464;-0.150;2024-02-21T06:29:19;6;6;
49064;PMS5003;34876;51.464;-0.150;2024-02-21T06:31:48;6;6;
49064;PMS5003;34876;51.464;-0.150;2024-02-21T06:34:18;4;3;
49064;PMS5003;34876;51.464;-0.150;2024-02-21T06:36:47;2;2;
49064;PMS5003;34876;51.464;-0.150;2024-02-21T06:39:17;5;5;
49064;PMS5003;34876;51.464;-0.150;2024-02-21T06:41:47;6;5;
49064;PMS5003;34876;51.464;-0.150;2024-02-21T06:44:16;5;5;
49064;PMS5003;34876;51.464;-0.150;2024-02-21T06:46:46;5;5;
49064;PMS5003;34876;51.464;-0.150;2024-02-21T06:49:15;5;5;
49064;PMS5003;34876;51.464;-0.150;2024-02-21T06:51:45;4;4;
49064;PMS5003;34876;51.464;-0.150;2024-02-21T06:54:14;4;3;
49064;PMS5003;34876;51.464;-0.150;2024-02-21T06:56:44;8;8;
49064;PMS5003;34876;51.464;-0.150;2024-02-21T06:59:14;9;9;
49064;PMS5003;34876;51.464;-0.150;2024-02-21T07:01:44;5;5;
49064;PMS5003;34876;51.464;-0.150;2024-02-21T07:04:17;4;4;
49064;PMS5003;34876;51.464;-0.150;2024-02-21T07:06:47;3;3;
49064;PMS5003;34876;51.464;-0.150;2024-02-21T07:09:17;4;4;
49064;PMS5003;34876;51.464;-0.150;2024-02-21T07:11:47;1;1;
49064;PMS5003;34876;51.464;-0.150;2024-02-21T07:14:17;3;3;
49064;PMS5003;34876;51.464;-0.150;2024-02-21T07:16:48;3;3;
49064;PMS5003;34876;51.464;-0.150;2024-02-21T07:19:17;4;4;
49064;PMS5003;34876;51.464;-0.150;2024-02-21T07:21:47;4;4;
49064;PMS5003;34876;51.464;-0.150;2024-02-21T07:24:17;5;3;
49064;PMS5003;34876;51.464;-0.150;2024-02-21T07:26:47;5;3;
49064;PMS5003;34876;51.464;-0.150;2024-02-21T07:29:25;3;3;
49064;PMS5003;34876;51.464;-0.150;2024-02-21T07:31:56;6;6;
49064;PMS5003;34876;51.464;-0.150;2024-02-21T07:34:26;4;4;
49064;PMS5003;34876;51.464;-0.150;2024-02-21T07:36:56;3;3;
49064;PMS5003;34876;51.464;-0.150;2024-02-21T07:39:25;3;3;
49064;PMS5003;34876;51.464;-0.150;2024-02-21T07:41:54;6;6;
49064;PMS5003;34876;51.464;-0.150;2024-02-21T07:44:24;4;4;
49064;PMS5003;34876;51.464;-0.150;2024-02-21T07:46:53;4;4;
49064;PMS5003;34876;51.464;-0.150;2024-02-21T07:49:22;5;5;
49064;PMS5003;34876;51.464;-0.150;2024-02-21T07:51:51;2;2;
49064;PMS5003;34876;51.464;-0.150;2024-02-21T07:54:22;3;3;
49064;PMS5003;34876;51.464;-0.150;2024-02-21T07:56:50;4;2;
49064;PMS5003;34876;51.464;-0.150;2024-02-21T07:59:19;2;2;
49064;PMS5003;34876;51.464;-0.150;2024-02-21T08:01:49;3;3;
49064;PMS5003;34876;51.464;-0.150;2024-02-21T08:04:17;5;5;
49064;PMS5003;34876;51.464;-0.150;2024-02-21T08:06:50;3;3;
49064;PMS5003;34876;51.464;-0.150;2024-02-21T08:09:21;3;3;
49064;PMS5003;34876;51.464;-0.150;2024-02-21T08:11:50;3;2;
49064;PMS5003;34876;51.464;-0.150;2024-02-21T08:14:18;5;5;
49064;PMS5003;34876;51.464;-0.150;2024-02-21T08:16:48;1;1;
49064;PMS5003;34876;51.464;-0.150;2024-02-21T08:19:18;4;4;
49064;PMS5003;34876;51.464;-0.150;2024-02-21T08:21:48;4;4;
49064;PMS5003;34876;51.464;-0.150;2024-02-21T08:24:17;3;3;
49064;PMS5003;34876;51.464;-0.150;2024-02-21T08:26:47;4;4;
49064;PMS5003;34876;51.464;-0.150;2024-02-21T08:29:15;5;3;
49064;PMS5003;34876;51.464;-0.150;2024-02-21T08:31:44;5;5;
49064;PMS5003;34876;51.464;-0.150;2024-02-21T08:34:14;7;4;
49064;PMS5003;34876;51.464;-0.150;2024-02-21T08:36:44;4;4;
49064;PMS5003;34876;51.464;-0.150;2024-02-21T08:39:15;3;3;
49064;PMS5003;34876;51.464;-0.150;2024-02-21T08:41:45;5;4;
49064;PMS5003;34876;51.464;-0.150;2024-02-21T08:44:13;2;2;
49064;PMS5003;34876;51.464;-0.150;2024-02-21T08:46:41;3;2;
49064;PMS5003;34876;51.464;-0.150;2024-02-21T08:49:11;4;4;
49064;PMS5003;34876;51.464;-0.150;2024-02-21T08:51:41;4;4;
49064;PMS5003;34876;51.464;-0.150;2024-02-21T08:54:11;3;3;
49064;PMS5003;34876;51.464;-0.150;2024-02-21T08:56:41;2;2;
49064;PMS5003;34876;51.464;-0.150;2024-02-21T08:59:11;2;2;
49064;PMS5003;34876;51.464;-0.150;2024-02-21T09:01:41;2;2;
49064;PMS5003;34876;51.464;-0.150;2024-02-21T09:04:11;3;3;
49064;PMS5003;34876;51.464;-0.150;2024-02-21T09:06:41;3;3;
49064;PMS5003;34876;51.464;-0.150;2024-02-21T09:09:10;2;2;
49064;PMS5003;34876;51.464;-0.150;2024-02-21T09:11:39;7;6;
49064;PMS5003;34876;51.464;-0.150;2024-02-21T09:14:09;5;4;
49064;PMS5003;34876;51.464;-0.150;2024-02-21T09:16:39;3;3;
49064;PMS5003;34876;51.464;-0.150;2024-02-21T09:19:14;4;4;
49064;PMS5003;34876;51.464;-0.150;2024-02-21T09:21:43;3;3;
49064;PMS5003;34876;51.464;-0.150;2024-02-21T09:24:13;3;3;
49064;PMS5003;34876;51.464;-0.150;2024-02-21T09:26:42;3;3;
49064;PMS5003;34876;51.464;-0.150;2024-02-21T09:29:11;3;3;
49064;PMS5003;34876;51.464;-0.150;2024-02-21T09:31:40;4;3;
49064;PMS5003;34876;51.464;-0.150;2024-02-21T09:34:10;4;4;
49064;PMS5003;34876;51.464;-0.150;2024-02-21T09:36:39;3;3;
49064;PMS5003;34876;51.464;-0.150;2024-02-21T09:39:09;3;2;
49064;PMS5003;34876;51.464;-0.150;2024-02-21T09:41:41;4;3;
49064;PMS5003;34876;51.464;-0.150;2024-02-21T09:44:17;4;3;
49064;PMS5003;34876;51.464;-0.150;2024-02-21T09:46:51;5;5;
49064;PMS5003;34876;51.464;-0.150;2024-02-21T09:49:29;1;1;
49064;PMS5003;34876;51.464;-0.150;2024-02-21T09:52:00;6;3;
49064;PMS5003;34876;51.464;-0.150;2024-02-21T09:54:32;4;3;
49064;PMS5003;34876;51.464;-0.150;2024-02-21T09:57:03;3;2;
49064;PMS5003;34876;51.464;-0.150;2024-02-21T09:59:33;3;3;
49064;PMS5003;34876;51.464;-0.150;2024-02-21T10:02:03;2;2;
49064;PMS5003;34876;51.464;-0.150;2024-02-21T10:04:33;5;4;
49064;PMS5003;34876;51.464;-0.150;2024-02-21T10:07:01;3;3;
49064;PMS5003;34876;51.464;-0.150;2024-02-21T10:09:31;6;5;
49064;PMS5003;34876;51.464;-0.150;2024-02-21T10:12:10;3;3;
49064;PMS5003;34876;51.464;-0.150;2024-02-21T10:14:41;3;2;
49064;PMS5003;34876;51.464;-0.150;2024-02-21T10:17:15;3;2;
49064;PMS5003;34876;51.464;-0.150;2024-02-21T10:19:45;3;3;
49064;PMS5003;34876;51.464;-0.150;2024-02-21T10:22:15;4;4;
49064;PMS5003;34876;51.464;-0.150;2024-02-21T10:24:47;4;4;
49064;PMS5003;34876;51.464;-0.150;2024-02-21T10:27:16;2;2;
49064;PMS5003;34876;51.464;-0.150;2024-02-21T10:29:49;3;3;
49064;PMS5003;34876;51.464;-0.150;2024-02-21T10:32:18;4;4;
49064;PMS5003;34876;51.464;-0.150;2024-02-21T10:34:48;4;4;
49064;PMS5003;34876;51.464;-0.150;2024-02-21T10:37:16;4;4;
49064;PMS5003;34876;51.464;-0.150;2024-02-21T10:39:46;2;2;
49064;PMS5003;34876;51.464;-0.150;2024-02-21T10:42:16;6;3;
49064;PMS5003;34876;51.464;-0.150;2024-02-21T10:44:51;2;2;
49064;PMS5003;34876;51.464;-0.150;2024-02-21T10:47:20;5;5;
49064;PMS5003;34876;51.464;-0.150;2024-02-21T10:49:56;4;4;
49064;PMS5003;34876;51.464;-0.150;2024-02-21T10:52:32;2;2;
49064;PMS5003;34876;51.464;-0.150;2024-02-21T10:55:14;2;2;
49064;PMS5003;34876;51.464;-0.150;2024-02-21T10:57:49;4;2;
49064;PMS5003;34876;51.464;-0.150;2024-02-21T11:00:20;5;4;
49064;PMS5003;34876;51.464;-0.150;2024-02-21T11:02:49;2;2;
49064;PMS5003;34876;51.464;-0.150;2024-02-21T11:05:19;2;2;
49064;PMS5003;34876;51.464;-0.150;2024-02-21T11:07:49;3;3;
49064;PMS5003;34876;51.464;-0.150;2024-02-21T11:10:20;4;2;
49064;PMS5003;34876;51.464;-0.150;2024-02-21T11:12:52;4;3;
49064;PMS5003;34876;51.464;-0.150;2024-02-21T11:15:25;2;2;
49064;PMS5003;34876;51.464;-0.150;2024-02-21T11:17:55;3;3;
49064;PMS5003;34876;51.464;-0.150;2024-02-21T11:20:31;4;3;
49064;PMS5003;34876;51.464;-0.150;2024-02-21T11:23:01;5;4;
49064;PMS5003;34876;51.464;-0.150;2024-02-21T11:25:30;2;2;
49064;PMS5003;34876;51.464;-0.150;2024-02-21T11:27:59;2;2;
49064;PMS5003;34876;51.464;-0.150;2024-02-21T11:30:30;2;2;
49064;PMS5003;34876;51.464;-0.150;2024-02-21T11:33:01;2;2;
49064;PMS5003;34876;51.464;-0.150;2024-02-21T11:35:31;2;2;
49064;PMS5003;34876;51.464;-0.150;2024-02-21T11:38:08;3;1;
49064;PMS5003;34876;51.464;-0.150;2024-02-21T11:40:39;2;2;
49064;PMS5003;34876;51.464;-0.150;2024-02-21T11:43:09;4;4;
49064;PMS5003;34876;51.464;-0.150;2024-02-21T11:45:38;4;4;
49064;PMS5003;34876;51.464;-0.150;2024-02-21T11:48:07;6;4;
49064;PMS5003;34876;51.464;-0.150;2024-02-21T11:50:37;2;2;
49064;PMS5003;34876;51.464;-0.150;2024-02-21T11:53:06;2;2;
49064;PMS5003;34876;51.464;-0.150;2024-02-21T11:55:36;3;3;
49064;PMS5003;34876;51.464;-0.150;2024-02-21T11:58:05;2;2;
49064;PMS5003;34876;51.464;-0.150;2024-02-21T12:00:34;3;3;
49064;PMS5003;34876;51.464;-0.150;2024-02-21T12:03:03;3;3;
49064;PMS5003;34876;51.464;-0.150;2024-02-21T12:05:33;1;1;
49064;PMS5003;34876;51.464;-0.150;2024-02-21T12:08:03;3;3;
49064;PMS5003;34876;51.464;-0.150;2024-02-21T12:10:33;2;2;
49064;PMS5003;34876;51.464;-0.150;2024-02-21T12:13:06;3;3;
49064;PMS5003;34876;51.464;-0.150;2024-02-21T12:15:38;2;2;
49064;PMS5003;34876;51.464;-0.150;2024-02-21T12:18:10;2;2;
49064;PMS5003;34876;51.464;-0.150;2024-02-21T12:20:39;3;3;
49064;PMS5003;34876;51.464;-0.150;2024-02-21T12:23:08;3;3;
49064;PMS5003;34876;51.464;-0.150;2024-02-21T12:25:39;4;4;
49064;PMS5003;34876;51.464;-0.150;2024-02-21T12:28:08;3;3;
49064;PMS5003;34876;51.464;-0.150;2024-02-21T12:30:38;2;2;
49064;PMS5003;34876;51.464;-0.150;2024-02-21T12:33:08;4;3;
49064;PMS5003;34876;51.464;-0.150;2024-02-21T12:35:38;2;2;
49064;PMS5003;34876;51.464;-0.150;2024-02-21T12:38:08;3;3;
49064;PMS5003;34876;51.464;-0.150;2024-02-21T12:40:37;7;5;
49064;PMS5003;34876;51.464;-0.150;2024-02-21T12:43:06;3;2;
49064;PMS5003;34876;51.464;-0.150;2024-02-21T12:45:35;4;4;
49064;PMS5003;34876;51.464;-0.150;2024-02-21T12:48:05;4;4;
49064;PMS5003;34876;51.464;-0.150;2024-02-21T12:50:34;4;4;
49064;PMS5003;34876;51.464;-0.150;2024-02-21T12:53:03;2;2;
49064;PMS5003;34876;51.464;-0.150;2024-02-21T12:55:33;4;3;
49064;PMS5003;34876;51.464;-0.150;2024-02-21T12:58:03;4;4;
49064;PMS5003;34876;51.464;-0.150;2024-02-21T13:00:32;4;2;
49064;PMS5003;34876;51.464;-0.150;2024-02-21T13:03:02;2;2;
49064;PMS5003;34876;51.464;-0.150;2024-02-21T13:05:31;4;2;
49064;PMS5003;34876;51.464;-0.150;2024-02-21T13:08:01;2;2;
49064;PMS5003;34876;51.464;-0.150;2024-02-21T13:10:33;3;3;
49064;PMS5003;34876;51.464;-0.150;2024-02-21T13:13:02;3;3;
49064;PMS5003;34876;51.464;-0.150;2024-02-21T13:15:31;7;3;
49064;PMS5003;34876;51.464;-0.150;2024-02-21T13:18:01;2;2;
49064;PMS5003;34876;51.464;-0.150;2024-02-21T13:20:31;2;2;
49064;PMS5003;34876;51.464;-0.150;2024-02-21T13:23:01;2;2;
49064;PMS5003;34876;51.464;-0.150;2024-02-21T13:25:31;1;0;
49064;PMS5003;34876;51.464;-0.150;2024-02-21T13:28:00;3;3;
49064;PMS5003;34876;51.464;-0.150;2024-02-21T13:30:30;2;2;
49064;PMS5003;34876;51.464;-0.150;2024-02-21T13:33:00;4;3;
49064;PMS5003;34876;51.464;-0.150;2024-02-21T13:35:29;3;3;
49064;PMS5003;34876;51.464;-0.150;2024-02-21T13:37:58;3;3;
49064;PMS5003;34876;51.464;-0.150;2024-02-21T13:40:27;2;2;
49064;PMS5003;34876;51.464;-0.150;2024-02-21T13:42:57;3;3;
49064;PMS5003;34876;51.464;-0.150;2024-02-21T13:45:27;4;4;
49064;PMS5003;34876;51.464;-0.150;2024-02-21T13:47:57;3;3;
49064;PMS5003;34876;51.464;-0.150;2024-02-21T13:50:30;3;3;
49064;PMS5003;34876;51.464;-0.150;2024-02-21T13:52:59;4;4;
49064;PMS5003;34876;51.464;-0.150;2024-02-21T13:55:28;1;1;
49064;PMS5003;34876;51.464;-0.150;2024-02-21T13:57:58;2;2;
49064;PMS5003;34876;51.464;-0.150;2024-02-21T14:00:27;2;2;
49064;PMS5003;34876;51.464;-0.150;2024-02-21T14:02:56;2;2;
49064;PMS5003;34876;51.464;-0.150;2024-02-21T14:05:26;4;2;
49064;PMS5003;34876;51.464;-0.150;2024-02-21T14:07:56;1;1;
49064;PMS5003;34876;51.464;-0.150;2024-02-21T14:10:25;3;3;
49064;PMS5003;34876;51.464;-0.150;2024-02-21T14:12:55;4;3;
49064;PMS5003;34876;51.464;-0.150;2024-02-21T14:15:24;1;1;
49064;PMS5003;34876;51.464;-0.150;2024-02-21T14:17:54;3;1;
49064;PMS5003;34876;51.464;-0.150;2024-02-21T14:20:23;4;4;
49064;PMS5003;34876;51.464;-0.150;2024-02-21T14:22:53;3;3;
49064;PMS5003;34876;51.464;-0.150;2024-02-21T14:25:23;1;1;
49064;PMS5003;34876;51.464;-0.150;2024-02-21T14:27:52;2;2;
49064;PMS5003;34876;51.464;-0.150;2024-02-21T14:30:21;1;1;
49064;PMS5003;34876;51.464;-0.150;2024-02-21T14:32:49;1;1;
49064;PMS5003;34876;51.464;-0.150;2024-02-21T14:35:19;6;4;
49064;PMS5003;34876;51.464;-0.150;2024-02-21T14:37:49;4;4;
49064;PMS5003;34876;51.464;-0.150;2024-02-21T14:40:19;2;2;
49064;PMS5003;34876;51.464;-0.150;2024-02-21T14:42:55;1;1;
49064;PMS5003;34876;51.464;-0.150;2024-02-21T14:45:23;3;3;
49064;PMS5003;34876;51.464;-0.150;2024-02-21T14:47:52;7;7;
49064;PMS5003;34876;51.464;-0.150;2024-02-21T14:50:21;2;2;
49064;PMS5003;34876;51.464;-0.150;2024-02-21T14:53:10;2;2;
49064;PMS5003;34876;51.464;-0.150;2024-02-21T14:55:40;4;3;
49064;PMS5003;34876;51.464;-0.150;2024-02-21T14:58:10;3;3;
49064;PMS5003;34876;51.464;-0.150;2024-02-21T15:00:40;0;0;
49064;PMS5003;34876;51.464;-0.150;2024-02-21T15:03:10;3;2;
49064;PMS5003;34876;51.464;-0.150;2024-02-21T15:05:40;2;2;
49064;PMS5003;34876;51.464;-0.150;2024-02-21T15:08:15;2;2;
49064;PMS5003;34876;51.464;-0.150;2024-02-21T15:10:45;3;3;
49064;PMS5003;34876;51.464;-0.150;2024-02-21T15:13:19;3;1;
49064;PMS5003;34876;51.464;-0.150;2024-02-21T15:15:49;3;3;
49064;PMS5003;34876;51.464;-0.150;2024-02-21T15:18:19;2;2;
49064;PMS5003;34876;51.464;-0.150;2024-02-21T15:20:48;1;1;
49064;PMS5003;34876;51.464;-0.150;2024-02-21T15:23:23;1;1;
49064;PMS5003;34876;51.464;-0.150;2024-02-21T15:25:58;2;2;
49064;PMS5003;34876;51.464;-0.150;2024-02-21T15:28:26;3;3;
49064;PMS5003;34876;51.464;-0.150;2024-02-21T15:30:56;2;2;
49064;PMS5003;34876;51.464;-0.150;2024-02-21T15:33:26;1;0;
49064;PMS5003;34876;51.464;-0.150;2024-02-21T15:35:55;2;2;
49064;PMS5003;34876;51.464;-0.150;2024-02-21T15:38:24;2;2;
49064;PMS5003;34876;51.464;-0.150;2024-02-21T15:40:53;2;2;
49064;PMS5003;34876;51.464;-0.150;2024-02-21T15:43:22;1;1;
49064;PMS5003;34876;51.464;-0.150;2024-02-21T15:45:51;0;0;
49064;PMS5003;34876;51.464;-0.150;2024-02-21T15:48:21;3;2;
49064;PMS5003;34876;51.464;-0.150;2024-02-21T15:50:51;2;2;
49064;PMS5003;34876;51.464;-0.150;2024-02-21T15:53:20;1;1;
49064;PMS5003;34876;51.464;-0.150;2024-02-21T15:55:50;2;2;
49064;PMS5003;34876;51.464;-0.150;2024-02-21T15:58:25;1;1;
49064;PMS5003;34876;51.464;-0.150;2024-02-21T16:00:55;1;1;
49064;PMS5003;34876;51.464;-0.150;2024-02-21T16:03:23;2;2;
49064;PMS5003;34876;51.464;-0.150;2024-02-21T16:05:52;1;1;
49064;PMS5003;34876;51.464;-0.150;2024-02-21T16:08:22;1;1;
49064;PMS5003;34876;51.464;-0.150;2024-02-21T16:10:52;2;1;
49064;PMS5003;34876;51.464;-0.150;2024-02-21T16:13:21;2;2;
49064;PMS5003;34876;51.464;-0.150;2024-02-21T16:15:50;1;1;
49064;PMS5003;34876;51.464;-0.150;2024-02-21T16:18:20;1;1;
49064;PMS5003;34876;51.464;-0.150;2024-02-21T16:20:49;1;1;
49064;PMS5003;34876;51.464;-0.150;2024-02-21T16:23:19;2;2;
49064;PMS5003;34876;51.464;-0.150;2024-02-21T16:25:47;2;1;
49064;PMS5003;34876;51.464;-0.150;2024-02-21T16:28:17;1;1;
49064;PMS5003;34876;51.464;-0.150;2024-02-21T16:30:45;4;3;
49064;PMS5003;34876;51.464;-0.150;2024-02-21T16:33:15;2;2;
49064;PMS5003;34876;51.464;-0.150;2024-02-21T16:35:44;2;2;
49064;PMS5003;34876;51.464;-0.150;2024-02-21T16:38:14;1;1;
49064;PMS5003;34876;51.464;-0.150;2024-02-21T16:40:44;1;1;
49064;PMS5003;34876;51.464;-0.150;2024-02-21T16:43:14;1;1;
49064;PMS5003;34876;51.464;-0.150;2024-02-21T16:45:44;0;0;
49064;PMS5003;34876;51.464;-0.150;2024-02-21T16:48:15;2;2;
49064;PMS5003;34876;51.464;-0.150;2024-02-21T16:50:43;1;0;
49064;PMS5003;34876;51.464;-0.150;2024-02-21T16:53:12;1;1;